Latest Weather Observations for Stawell

IDV60801

Issued at 7:32 pm EDT Monday 25 October 2021 (issued every 10 minutes, with the page automatically refreshed every 10 minutes)

About weather observations | Map of weather stations | Latest weather observations for VIC | Other Formats
Station Details ID: 079105 Name: STAWELL AERODROME Lat: -37.07 Lon: 142.74 Height: 235.36 m
Data from the previous 72 hours. | See also: Recent months at Stawell
Date/Time
EDT
Temp
°C
App
Temp
°C
Dew
Point
°C
Rel
Hum
%
Delta-T
°C
Wind Press
QNH
hPa
Press
MSL
hPa
Rain since
9am
mm
Dir  Spd
km/h
Gust
km/h
Spd
kts
Gust
kts
25/07:30pm 11.6 7.7 3.6 58 3.6 S 13 20 7 11 1020.4 1020.2 0.0
25/07:00pm 12.2 8.1 4.2 58 3.6 S 15 24 8 13 1020.2 1020.0 0.0
25/06:30pm 12.5 7.6 4.2 57 3.8 SSE 19 24 10 13 1020.3 1020.1 0.0
25/06:00pm 13.4 8.3 4.0 53 4.3 S 20 35 11 19 1020.1 1019.9 0.0
25/05:30pm 13.6 8.5 3.9 52 4.5 SSE 20 28 11 15 1020.1 1019.9 0.0
25/05:00pm 13.6 9.9 4.5 54 4.2 SSW 13 20 7 11 1020.1 1019.9 0.0
25/04:30pm 13.5 9.0 4.1 53 4.3 S 17 24 9 13 1020.4 1020.2 0.0
25/04:00pm 13.5 8.5 4.4 54 4.2 S 20 28 11 15 1020.6 1020.4 0.0
25/03:30pm 13.4 8.4 4.8 56 4.0 SSE 20 28 11 15 1021.0 1020.9 0.0
25/03:00pm 12.8 7.4 4.3 56 3.9 SSE 22 32 12 17 1021.4 1021.3 0.0
25/02:30pm 13.0 8.4 3.9 54 4.2 S 17 26 9 14 1021.5 1021.4 0.0
25/02:00pm 12.9 7.7 3.8 54 4.1 SSE 20 28 11 15 1021.8 1021.7 0.0
25/01:30pm 12.4 7.8 3.9 56 3.9 S 17 24 9 13 1022.2 1022.1 0.0
25/01:00pm 12.3 7.8 4.3 58 3.7 SSW 17 24 9 13 1022.3 1022.2 0.0
25/12:30pm 11.9 7.0 4.2 59 3.5 SSW 19 30 10 16 1022.5 1022.4 0.0
25/12:00pm 12.6 7.5 3.3 53 4.2 S 19 28 10 15 1022.6 1022.5 0.0
25/11:30am 12.1 6.4 2.6 52 4.2 SSE 22 32 12 17 1022.9 1022.8 0.0
25/11:00am 11.4 5.6 2.2 53 4.0 SSE 22 32 12 17 1022.9 1022.8 0.0
25/10:30am 10.9 5.5 2.2 55 3.8 S 20 35 11 19 1023.2 1023.1 0.0
25/10:00am 10.9 5.5 2.7 57 3.6 S 20 35 11 19 1023.0 1022.9 0.0
25/09:30am 9.9 4.2 2.7 61 3.1 S 22 35 12 19 1023.1 1023.0 0.0
25/09:00am 9.5 4.3 3.3 65 2.7 S 20 33 11 18 1022.9 1022.8 0.0
25/08:30am 9.2 4.1 2.8 64 2.8 S 19 24 10 13 1022.7 1022.6 0.0
25/08:00am 8.9 3.5 2.5 64 2.7 S 20 32 11 17 1022.4 1022.3 0.0
25/07:30am 8.5 3.3 2.3 65 2.6 S 19 26 10 14 1022.3 1022.2 0.0
25/07:00am 8.3 3.1 2.5 67 2.5 S 19 24 10 13 1022.1 1022.0 0.0
25/06:30am 8.3 3.6 3.0 69 2.3 S 17 30 9 16 1021.9 1021.8 0.0
25/06:00am 8.4 2.7 3.1 69 2.3 S 22 33 12 18 1021.6 1021.5 0.0
25/05:30am 8.2 3.1 3.3 71 2.1 S 19 28 10 15 1021.7 1021.6 0.0
25/05:00am 8.1 3.9 3.8 74 1.9 S 15 20 8 11 1021.9 1021.8 0.0
25/04:30am 8.0 4.2 3.7 74 1.9 SSW 13 19 7 10 1021.7 1021.6 0.0
25/04:00am 8.1 3.7 2.6 68 2.3 SSW 15 22 8 12 1021.7 1021.6 0.0
25/03:30am 8.1 3.0 2.8 69 2.3 S 19 28 10 15 1021.8 1021.7 0.0
25/03:00am 8.3 3.9 2.5 67 2.5 S 15 28 8 15 1021.7 1021.6 0.0
25/02:30am 8.2 3.7 2.4 67 2.5 S 15 22 8 12 1022.0 1021.9 0.0
25/02:00am 8.3 4.0 3.0 69 2.3 S 15 26 8 14 1022.2 1022.1 0.0
25/01:30am 8.2 4.2 2.9 69 2.3 SSW 13 26 7 14 1022.7 1022.6 0.0
25/01:00am 8.1 4.5 3.2 71 2.1 SSW 11 19 6 10 1023.0 1022.9 0.0
25/12:30am 8.2 4.2 2.9 69 2.3 S 13 20 7 11 1023.1 1023.0 0.0
25/12:00am 7.7 4.1 3.2 73 1.9 SSW 11 22 6 12 1023.2 1023.1 0.0
 
Date/Time
EDT
Temp
°C
App
Temp
°C
Dew
Point
°C
Rel
Hum
%
Delta-T
°C
Wind Press
QNH
hPa
Press
MSL
hPa
Rain since
9am
mm
Dir  Spd
km/h
Gust
km/h
Spd
kts
Gust
kts
24/11:30pm 8.2 4.4 3.7 73 2.0 S 13 20 7 11 1023.3 1023.2 0.0
24/11:00pm 8.7 3.8 4.1 73 2.0 S 19 28 10 15 1023.4 1023.3 0.0
24/10:30pm 8.3 4.5 3.9 74 1.9 SSW 13 19 7 10 1023.6 1023.5 0.0
24/10:00pm 8.6 4.8 3.8 72 2.1 SSW 13 20 7 11 1023.8 1023.7 0.0
24/09:30pm 8.5 5.0 3.6 71 2.1 SW 11 19 6 10 1023.7 1023.6 0.0
24/09:00pm 9.2 5.6 2.8 64 2.7 SSW 11 19 6 10 1023.6 1023.5 0.0
24/08:30pm 9.7 5.4 3.0 63 2.9 SSW 15 22 8 12 1023.3 1023.2 0.0
24/08:00pm 10.6 4.6 3.4 61 3.2 S 24 37 13 20 1023.2 1023.1 0.0
24/07:30pm 10.9 4.9 3.2 59 3.4 S 24 33 13 18 1023.0 1022.9 0.0
24/07:00pm 11.4 6.4 3.4 58 3.6 S 19 30 10 16 1022.7 1022.6 0.0
24/06:30pm 11.9 6.3 3.4 56 3.8 S 22 37 12 20 1022.7 1022.6 0.0
24/06:00pm 12.0 6.3 3.0 54 4.0 S 22 33 12 18 1022.6 1022.5 0.0
24/05:30pm 12.1 5.6 4.6 60 3.5 S 28 37 15 20 1022.5 1022.4 0.0
24/05:00pm 12.6 6.9 4.8 59 3.6 S 24 32 13 17 1022.5 1022.4 0.0
24/04:30pm 12.9 6.1 5.1 59 3.7 S 30 41 16 22 1022.5 1022.4 0.0
24/04:00pm 13.1 7.7 4.3 55 4.0 SSW 22 32 12 17 1022.5 1022.4 0.0
24/03:30pm 13.9 8.2 2.8 47 5.0 S 22 37 12 20 1022.7 1022.6 0.0
24/03:00pm 14.4 7.8 4.1 50 4.8 S 28 37 15 20 1023.0 1022.9 0.0
24/02:30pm 13.9 8.3 3.4 49 4.8 S 22 32 12 17 1023.2 1023.1 0.0
24/02:00pm 13.9 8.2 2.8 47 5.0 SSW 22 35 12 19 1023.3 1023.2 0.0
24/01:30pm 14.0 8.8 3.5 49 4.8 SSW 20 30 11 16 1023.5 1023.4 0.0
24/01:00pm 13.3 7.2 2.5 48 4.8 S 24 37 13 20 1023.6 1023.5 0.0
24/12:30pm 13.2 8.0 3.3 51 4.5 S 20 32 11 17 1023.9 1023.8 0.0
24/12:00pm 12.6 7.0 3.6 54 4.1 S 22 35 12 19 1024.0 1023.9 0.0
24/11:30am 12.8 7.1 2.9 51 4.4 SSW 22 33 12 18 1024.0 1023.9 0.0
24/11:00am 12.5 7.0 4.2 57 3.8 SSW 22 37 12 20 1024.1 1024.0 0.0
24/10:30am 12.3 5.7 4.0 57 3.8 S 28 43 15 23 1024.1 1024.0 0.0
24/10:00am 11.2 4.4 3.3 58 3.5 S 28 46 15 25 1024.0 1023.9 0.0
24/09:56am 11.4 4.7 3.9 60 3.4 S 28 46 15 25 1023.9 1023.8 0.0
24/09:30am 10.4 4.6 4.3 66 2.8 SSW 24 43 13 23 1024.0 1023.9 0.0
24/09:00am 10.4 4.1 5.8 73 2.1 S 28 41 15 22 1023.8 1023.7 4.4
24/08:30am 9.8 5.9 6.9 82 1.4 SSW 17 32 9 17 1023.8 1023.7 4.4
24/08:00am 9.0 5.4 6.8 86 1.0 SSW 15 20 8 11 1023.5 1023.4 4.4
24/07:30am 8.6 6.1 6.7 88 0.9 SSW 9 15 5 8 1023.2 1023.1 4.4
24/07:00am 8.1 4.9 6.7 91 0.7 S 13 17 7 9 1023.0 1022.9 4.4
24/06:30am 7.4 5.2 6.2 92 0.6 SSW 7 13 4 7 1022.5 1022.4 4.4
24/06:00am 7.5 4.2 6.3 92 0.6 SSW 13 19 7 10 1022.1 1022.0 4.4
24/05:30am 8.0 3.6 6.5 90 0.7 SSW 19 26 10 14 1021.9 1021.8 4.4
24/05:00am 8.2 3.6 6.3 88 0.9 S 20 32 11 17 1021.6 1021.5 4.4
24/04:30am 8.1 4.1 6.7 91 0.7 S 17 26 9 14 1021.4 1021.3 4.4
24/04:00am 8.2 4.2 6.7 90 0.7 SSW 17 26 9 14 1021.4 1021.3 4.4
24/03:30am 8.2 4.7 7.0 92 0.6 SSW 15 22 8 12 1021.5 1021.4 4.2
24/03:00am 8.2 5.4 7.0 92 0.6 SSW 11 19 6 10 1021.7 1021.6 4.2
24/02:30am 8.4 5.7 7.3 93 0.5 S 11 15 6 8 1021.8 1021.7 4.2
24/02:00am 8.7 5.3 7.5 92 0.6 S 15 30 8 16 1022.0 1021.9 4.2
24/01:30am 8.1 5.7 7.0 93 0.5 S 9 13 5 7 1022.3 1022.2 4.2
24/01:00am 7.9 6.0 6.5 91 0.6 SW 6 9 3 5 1022.5 1022.4 4.2
24/12:30am 8.7 5.9 7.0 89 0.8 SSW 11 13 6 7 1022.4 1022.3 4.2
24/12:00am 9.1 6.3 6.9 86 1.0 SSW 11 17 6 9 1022.5 1022.4 4.2
 
Date/Time
EDT
Temp
°C
App
Temp
°C
Dew
Point
°C
Rel
Hum
%
Delta-T
°C
Wind Press
QNH
hPa
Press
MSL
hPa
Rain since
9am
mm
Dir  Spd
km/h
Gust
km/h
Spd
kts
Gust
kts
23/11:30pm 9.5 5.9 6.9 84 1.2 SSW 15 22 8 12 1022.4 1022.3 4.2
23/11:00pm 9.7 6.3 7.5 86 1.1 SSW 15 20 8 11 1022.2 1022.1 4.2
23/10:30pm 9.9 5.7 7.5 85 1.2 S 19 30 10 16 1022.2 1022.1 4.2
23/10:00pm 10.2 5.8 7.3 82 1.4 S 20 37 11 20 1022.1 1022.0 4.2
23/09:30pm 10.3 4.9 6.5 77 1.8 S 24 35 13 19 1021.7 1021.6 4.2
23/09:00pm 10.3 5.5 7.4 82 1.4 S 22 33 12 18 1021.4 1021.3 4.2
23/08:30pm 11.0 6.5 7.1 77 1.9 S 20 33 11 18 1020.8 1020.6 4.2
23/08:00pm 11.4 8.4 7.5 77 1.9 SSW 13 19 7 10 1020.2 1020.0 4.2
23/07:30pm 12.1 8.4 7.8 75 2.1 S 17 26 9 14 1019.6 1019.5 4.2
23/07:00pm 12.4 9.1 8.1 75 2.1 SSW 15 26 8 14 1019.0 1018.9 4.2
23/06:30pm 12.5 10.8 9.7 83 1.4 SW 9 17 5 9 1018.6 1018.5 4.2
23/06:00pm 12.2 10.6 10.3 88 1.0 SW 9 15 5 8 1018.4 1018.3 4.2
23/05:30pm 10.6 8.7 9.0 90 0.8 SW 9 15 5 8 1018.3 1018.2 4.2
23/05:00pm 11.1 7.6 8.8 86 1.2 WSW 17 30 9 16 1018.4 1018.3 3.2
23/04:30pm 11.9 9.9 10.3 90 0.8 SSW 11 17 6 9 1018.0 1017.9 2.0
23/04:00pm 10.3 4.4 7.7 84 1.3 SSW 28 44 15 24 1018.2 1018.1 1.6
23/03:30pm 14.4 9.8 6.5 59 3.9 SSW 20 28 11 15 1017.3 1017.2 0.4
23/03:00pm 14.8 11.0 7.4 61 3.7 SSW 17 26 9 14 1017.4 1017.3 0.4
23/02:30pm 13.5 9.3 7.3 66 3.1 SSW 19 26 10 14 1017.6 1017.5 0.4
23/02:00pm 15.3 11.1 8.1 62 3.7 SW 20 32 11 17 1017.4 1017.3 0.4
23/01:30pm 15.6 11.4 7.6 59 4.0 WSW 19 32 10 17 1017.0 1016.8 0.4
23/01:00pm 15.4 13.3 8.4 63 3.6 WSW 9 26 5 14 1016.8 1016.6 0.4
23/12:30pm 15.2 12.1 8.7 65 3.3 SW 15 24 8 13 1017.0 1016.8 0.4
23/12:00pm 14.1 11.7 9.9 76 2.2 SSW 13 19 7 10 1017.1 1016.9 0.4
23/11:30am 13.0 10.8 10.7 86 1.2 SSW 13 24 7 13 1017.0 1016.8 0.4
23/11:00am 12.0 9.8 10.7 92 0.7 SSW 13 19 7 10 1016.9 1016.7 0.4
23/10:30am 11.3 7.5 9.9 91 0.7 SSW 20 30 11 16 1016.8 1016.6 0.2
23/10:00am 14.6 12.2 8.5 67 3.1 SSW 11 19 6 10 1016.2 1016.0 0.0
23/09:30am 13.7 10.9 8.5 71 2.6 S 13 17 7 9 1016.2 1016.0 0.0
23/09:00am 13.1 10.5 9.2 77 2.0 S 13 24 7 13 1016.2 1016.0 0.0
23/08:30am 13.1 11.8 10.1 82 1.6 SSW 7 11 4 6 1015.8 1015.6 0.0
23/08:00am 12.2 9.9 10.3 88 1.0 SSW 13 20 7 11 1015.6 1015.4 0.0
23/07:30am 11.2 9.6 10.1 93 0.6 SSW 9 13 5 7 1015.2 1015.1 0.0
23/07:00am 11.2 9.5 10.0 92 0.6 SW 9 17 5 9 1015.1 1015.0 0.0
23/06:30am 11.5 10.2 9.8 89 0.9 SSW 7 13 4 7 1014.8 1014.7 0.0
23/06:00am 11.7 9.3 9.9 89 0.9 S 13 17 7 9 1014.4 1014.3 0.0
23/05:30am 11.7 9.7 10.1 90 0.8 SSW 11 17 6 9 1014.4 1014.3 0.0
23/05:00am 11.7 9.7 10.1 90 0.8 SSW 11 15 6 8 1014.2 1014.1 0.0
23/04:30am 12.0 10.0 10.1 88 1.0 S 11 19 6 10 1014.0 1013.9 0.0
23/04:00am 11.8 9.0 10.0 89 0.9 SSE 15 24 8 13 1013.8 1013.7 0.0
23/03:30am 12.1 9.7 10.0 87 1.1 SSE 13 19 7 10 1014.0 1013.9 0.0
23/03:00am 11.8 9.3 9.7 87 1.1 SE 13 17 7 9 1013.7 1013.6 0.0
23/02:30am 11.9 9.0 9.6 86 1.2 SSE 15 24 8 13 1013.5 1013.3 0.0
23/02:00am 12.1 8.8 9.7 85 1.2 S 17 30 9 16 1013.9 1013.8 0.0
23/01:30am 12.2 8.4 9.8 85 1.2 S 20 28 11 15 1014.2 1014.1 0.0
23/01:00am 12.5 9.6 9.7 83 1.4 SSE 15 26 8 14 1014.7 1014.6 0.0
23/12:30am 12.5 8.7 9.7 83 1.4 SSE 20 33 11 18 1014.7 1014.6 0.0
23/12:00am 12.5 8.9 10.0 85 1.3 S 19 28 10 15 1014.7 1014.6 0.0
 
Date/Time
EDT
Temp
°C
App
Temp
°C
Dew
Point
°C
Rel
Hum
%
Delta-T
°C
Wind Press
QNH
hPa
Press
MSL
hPa
Rain since
9am
mm
Dir  Spd
km/h
Gust
km/h
Spd
kts
Gust
kts
22/11:30pm 12.5 8.7 9.9 84 1.3 S 20 35 11 19 1014.8 1014.7 0.0
22/11:00pm 12.5 8.3 9.7 83 1.4 S 22 30 12 16 1015.0 1014.9 0.0
22/10:30pm 12.7 8.7 10.4 86 1.2 S 22 35 12 19 1014.9 1014.8 0.0
22/10:00pm 12.7 9.3 10.4 86 1.2 S 19 35 10 19 1014.7 1014.6 0.0
22/09:30pm 13.0 9.1 10.7 86 1.2 S 22 33 12 18 1014.3 1014.2 0.0
22/09:00pm 13.5 9.2 10.9 84 1.4 SSW 24 39 13 21 1013.8 1013.7 0.0
22/08:46pm 13.4 8.6 11.6 89 1.0 S 28 50 15 27 1013.4 1013.2 0.0
22/08:30pm 13.8 9.2 12.2 90 0.9 S 28 43 15 23 1013.4 1013.2 0.0
22/08:00pm 14.4 10.8 13.0 91 0.8 S 24 37 13 20 1012.7 1012.5 0.0

Other formats

Comma delimited format used in spreadsheet applications
http://www.bom.gov.au/fwo/IDV60801/IDV60801.94836.axf

JavaScript Object Notation format (JSON) in row-major order
http://www.bom.gov.au/fwo/IDV60801/IDV60801.94836.json

Data quality

Most of these data are generated automatically and are frequently updated. Quality checks on data are not normally performed. It is possible for incorrect values to appear. Refer to information at About Latest Weather Observations and please check the disclaimer before using these data.